sensor_id;sensor_type;location;lat;lon;timestamp;P1;durP1;ratioP1;P2;durP2;ratioP2
71790;SDS011;59638;52.126;5.434;2023-09-12T00:00:05;32.50;;;19.00;;
71790;SDS011;59638;52.126;5.434;2023-09-12T00:02:32;36.00;;;20.50;;
71790;SDS011;59638;52.126;5.434;2023-09-12T00:04:59;33.47;;;18.67;;
71790;SDS011;59638;52.126;5.434;2023-09-12T00:07:25;30.50;;;18.45;;
71790;SDS011;59638;52.126;5.434;2023-09-12T00:09:53;31.55;;;18.70;;
71790;SDS011;59638;52.126;5.434;2023-09-12T00:12:21;30.87;;;19.93;;
71790;SDS011;59638;52.126;5.434;2023-09-12T00:14:49;33.42;;;19.92;;
71790;SDS011;59638;52.126;5.434;2023-09-12T00:17:15;33.75;;;19.15;;
71790;SDS011;59638;52.126;5.434;2023-09-12T00:19:42;35.10;;;18.63;;
71790;SDS011;59638;52.126;5.434;2023-09-12T00:22:09;29.25;;;17.83;;
71790;SDS011;59638;52.126;5.434;2023-09-12T00:24:35;39.37;;;20.80;;
71790;SDS011;59638;52.126;5.434;2023-09-12T00:27:02;38.40;;;20.45;;
71790;SDS011;59638;52.126;5.434;2023-09-12T00:29:31;38.75;;;20.42;;
71790;SDS011;59638;52.126;5.434;2023-09-12T00:31:57;38.30;;;18.38;;
71790;SDS011;59638;52.126;5.434;2023-09-12T00:34:24;78.68;;;16.95;;
71790;SDS011;59638;52.126;5.434;2023-09-12T00:36:51;442.53;;;22.87;;
71790;SDS011;59638;52.126;5.434;2023-09-12T00:39:17;283.83;;;18.23;;
71790;SDS011;59638;52.126;5.434;2023-09-12T00:41:43;36.83;;;13.70;;
71790;SDS011;59638;52.126;5.434;2023-09-12T00:44:10;161.23;;;19.15;;
71790;SDS011;59638;52.126;5.434;2023-09-12T00:46:36;108.93;;;19.13;;
71790;SDS011;59638;52.126;5.434;2023-09-12T00:49:04;214.00;;;19.77;;
71790;SDS011;59638;52.126;5.434;2023-09-12T00:51:33;109.05;;;16.80;;
71790;SDS011;59638;52.126;5.434;2023-09-12T00:54:01;39.47;;;16.92;;
71790;SDS011;59638;52.126;5.434;2023-09-12T00:56:27;43.30;;;15.20;;
71790;SDS011;59638;52.126;5.434;2023-09-12T00:58:55;43.25;;;13.40;;
71790;SDS011;59638;52.126;5.434;2023-09-12T01:01:22;98.53;;;16.70;;
71790;SDS011;59638;52.126;5.434;2023-09-12T01:03:49;72.70;;;15.00;;
71790;SDS011;59638;52.126;5.434;2023-09-12T01:06:17;115.32;;;16.40;;
71790;SDS011;59638;52.126;5.434;2023-09-12T01:08:46;51.00;;;16.15;;
71790;SDS011;59638;52.126;5.434;2023-09-12T01:11:13;82.43;;;14.32;;
71790;SDS011;59638;52.126;5.434;2023-09-12T01:13:40;75.20;;;14.73;;
71790;SDS011;59638;52.126;5.434;2023-09-12T01:16:07;149.70;;;17.00;;
71790;SDS011;59638;52.126;5.434;2023-09-12T01:18:33;126.53;;;13.90;;
71790;SDS011;59638;52.126;5.434;2023-09-12T01:26:23;102.43;;;12.63;;
71790;SDS011;59638;52.126;5.434;2023-09-12T01:28:57;52.25;;;11.25;;
71790;SDS011;59638;52.126;5.434;2023-09-12T01:31:24;62.45;;;11.52;;
71790;SDS011;59638;52.126;5.434;2023-09-12T01:33:55;29.70;;;10.93;;
71790;SDS011;59638;52.126;5.434;2023-09-12T01:36:23;20.67;;;11.77;;
71790;SDS011;59638;52.126;5.434;2023-09-12T01:38:50;19.97;;;13.10;;
71790;SDS011;59638;52.126;5.434;2023-09-12T01:41:16;16.42;;;12.60;;
71790;SDS011;59638;52.126;5.434;2023-09-12T01:43:44;19.23;;;12.85;;
71790;SDS011;59638;52.126;5.434;2023-09-12T01:46:13;30.08;;;13.00;;
71790;SDS011;59638;52.126;5.434;2023-09-12T01:48:41;67.00;;;11.82;;
71790;SDS011;59638;52.126;5.434;2023-09-12T01:51:10;38.87;;;11.80;;
71790;SDS011;59638;52.126;5.434;2023-09-12T01:53:37;133.18;;;13.32;;
71790;SDS011;59638;52.126;5.434;2023-09-12T01:56:05;180.90;;;15.32;;
71790;SDS011;59638;52.126;5.434;2023-09-12T01:58:31;200.82;;;14.70;;
71790;SDS011;59638;52.126;5.434;2023-09-12T02:00:58;130.70;;;15.30;;
71790;SDS011;59638;52.126;5.434;2023-09-12T02:03:25;209.70;;;14.93;;
71790;SDS011;59638;52.126;5.434;2023-09-12T02:05:51;160.30;;;14.65;;
71790;SDS011;59638;52.126;5.434;2023-09-12T02:08:18;221.38;;;15.30;;
71790;SDS011;59638;52.126;5.434;2023-09-12T02:10:44;132.57;;;13.38;;
71790;SDS011;59638;52.126;5.434;2023-09-12T02:13:11;91.82;;;12.43;;
71790;SDS011;59638;52.126;5.434;2023-09-12T02:15:37;104.20;;;12.07;;
71790;SDS011;59638;52.126;5.434;2023-09-12T02:18:04;97.07;;;12.85;;
71790;SDS011;59638;52.126;5.434;2023-09-12T02:20:31;63.13;;;12.20;;
71790;SDS011;59638;52.126;5.434;2023-09-12T02:22:59;117.05;;;14.38;;
71790;SDS011;59638;52.126;5.434;2023-09-12T02:25:25;70.55;;;13.82;;
71790;SDS011;59638;52.126;5.434;2023-09-12T02:27:52;105.50;;;11.67;;
71790;SDS011;59638;52.126;5.434;2023-09-12T02:30:18;81.63;;;11.05;;
71790;SDS011;59638;52.126;5.434;2023-09-12T02:32:45;61.72;;;10.07;;
71790;SDS011;59638;52.126;5.434;2023-09-12T02:35:11;45.92;;;12.43;;
71790;SDS011;59638;52.126;5.434;2023-09-12T02:37:38;64.82;;;11.85;;
71790;SDS011;59638;52.126;5.434;2023-09-12T02:40:04;80.27;;;13.20;;
71790;SDS011;59638;52.126;5.434;2023-09-12T02:42:32;101.40;;;12.95;;
71790;SDS011;59638;52.126;5.434;2023-09-12T02:44:59;68.28;;;11.75;;
71790;SDS011;59638;52.126;5.434;2023-09-12T02:47:25;86.20;;;12.27;;
71790;SDS011;59638;52.126;5.434;2023-09-12T02:49:51;99.70;;;13.75;;
71790;SDS011;59638;52.126;5.434;2023-09-12T02:52:18;80.13;;;12.10;;
71790;SDS011;59638;52.126;5.434;2023-09-12T02:54:44;51.03;;;11.73;;
71790;SDS011;59638;52.126;5.434;2023-09-12T02:57:11;41.17;;;12.50;;
71790;SDS011;59638;52.126;5.434;2023-09-12T02:59:37;37.60;;;10.80;;
71790;SDS011;59638;52.126;5.434;2023-09-12T03:02:04;18.67;;;11.00;;
71790;SDS011;59638;52.126;5.434;2023-09-12T03:04:32;29.73;;;10.90;;
71790;SDS011;59638;52.126;5.434;2023-09-12T03:07:01;17.05;;;12.27;;
71790;SDS011;59638;52.126;5.434;2023-09-12T03:09:27;25.60;;;11.13;;
71790;SDS011;59638;52.126;5.434;2023-09-12T03:11:54;43.72;;;12.57;;
71790;SDS011;59638;52.126;5.434;2023-09-12T03:14:20;58.53;;;10.77;;
71790;SDS011;59638;52.126;5.434;2023-09-12T03:16:47;71.53;;;10.90;;
71790;SDS011;59638;52.126;5.434;2023-09-12T03:19:13;39.58;;;10.18;;
71790;SDS011;59638;52.126;5.434;2023-09-12T03:21:40;67.63;;;10.32;;
71790;SDS011;59638;52.126;5.434;2023-09-12T03:24:06;54.63;;;10.13;;
71790;SDS011;59638;52.126;5.434;2023-09-12T03:26:33;51.00;;;10.02;;
71790;SDS011;59638;52.126;5.434;2023-09-12T03:29:00;77.73;;;13.50;;
71790;SDS011;59638;52.126;5.434;2023-09-12T03:31:28;69.68;;;10.52;;
71790;SDS011;59638;52.126;5.434;2023-09-12T03:33:55;146.43;;;12.63;;
71790;SDS011;59638;52.126;5.434;2023-09-12T03:36:21;59.97;;;11.18;;
71790;SDS011;59638;52.126;5.434;2023-09-12T03:38:48;79.53;;;12.68;;
71790;SDS011;59638;52.126;5.434;2023-09-12T03:41:14;39.83;;;11.20;;
71790;SDS011;59638;52.126;5.434;2023-09-12T03:43:41;33.72;;;10.02;;
71790;SDS011;59638;52.126;5.434;2023-09-12T03:46:07;46.92;;;9.10;;
71790;SDS011;59638;52.126;5.434;2023-09-12T03:48:34;40.08;;;8.77;;
71790;SDS011;59638;52.126;5.434;2023-09-12T03:51:03;66.18;;;9.43;;
71790;SDS011;59638;52.126;5.434;2023-09-12T03:53:30;39.83;;;10.77;;
71790;SDS011;59638;52.126;5.434;2023-09-12T03:55:57;61.50;;;11.60;;
71790;SDS011;59638;52.126;5.434;2023-09-12T03:58:24;55.67;;;12.27;;
71790;SDS011;59638;52.126;5.434;2023-09-12T04:00:51;17.40;;;10.63;;
71790;SDS011;59638;52.126;5.434;2023-09-12T04:03:17;18.73;;;10.25;;
71790;SDS011;59638;52.126;5.434;2023-09-12T04:05:45;70.33;;;10.87;;
71790;SDS011;59638;52.126;5.434;2023-09-12T04:08:13;39.45;;;9.63;;
71790;SDS011;59638;52.126;5.434;2023-09-12T04:10:39;46.20;;;11.10;;
71790;SDS011;59638;52.126;5.434;2023-09-12T04:13:06;48.78;;;11.43;;
71790;SDS011;59638;52.126;5.434;2023-09-12T04:15:32;53.65;;;11.05;;
71790;SDS011;59638;52.126;5.434;2023-09-12T04:18:00;57.30;;;10.67;;
71790;SDS011;59638;52.126;5.434;2023-09-12T04:20:26;86.95;;;11.60;;
71790;SDS011;59638;52.126;5.434;2023-09-12T04:22:53;74.13;;;11.50;;
71790;SDS011;59638;52.126;5.434;2023-09-12T04:25:19;55.90;;;11.02;;
71790;SDS011;59638;52.126;5.434;2023-09-12T04:27:46;32.60;;;11.45;;
71790;SDS011;59638;52.126;5.434;2023-09-12T04:30:12;48.83;;;12.47;;
71790;SDS011;59638;52.126;5.434;2023-09-12T04:32:39;25.92;;;13.10;;
71790;SDS011;59638;52.126;5.434;2023-09-12T04:35:06;79.85;;;9.57;;
71790;SDS011;59638;52.126;5.434;2023-09-12T04:37:33;50.15;;;8.90;;
71790;SDS011;59638;52.126;5.434;2023-09-12T04:39:59;55.30;;;9.80;;
71790;SDS011;59638;52.126;5.434;2023-09-12T04:42:25;51.07;;;9.47;;
71790;SDS011;59638;52.126;5.434;2023-09-12T04:44:52;66.57;;;11.65;;
71790;SDS011;59638;52.126;5.434;2023-09-12T04:47:18;65.70;;;10.48;;
71790;SDS011;59638;52.126;5.434;2023-09-12T04:49:45;57.70;;;12.93;;
71790;SDS011;59638;52.126;5.434;2023-09-12T04:52:11;54.35;;;10.77;;
71790;SDS011;59638;52.126;5.434;2023-09-12T04:54:38;30.40;;;9.97;;
71790;SDS011;59638;52.126;5.434;2023-09-12T04:57:04;45.50;;;10.93;;
71790;SDS011;59638;52.126;5.434;2023-09-12T04:59:31;58.67;;;11.23;;
71790;SDS011;59638;52.126;5.434;2023-09-12T05:01:57;105.32;;;13.80;;
71790;SDS011;59638;52.126;5.434;2023-09-12T05:04:24;62.92;;;12.57;;
71790;SDS011;59638;52.126;5.434;2023-09-12T05:06:50;77.80;;;12.83;;
71790;SDS011;59638;52.126;5.434;2023-09-12T05:09:17;77.57;;;15.13;;
71790;SDS011;59638;52.126;5.434;2023-09-12T05:11:44;67.35;;;13.00;;
71790;SDS011;59638;52.126;5.434;2023-09-12T05:14:10;50.95;;;11.43;;
71790;SDS011;59638;52.126;5.434;2023-09-12T05:16:37;66.20;;;10.68;;
71790;SDS011;59638;52.126;5.434;2023-09-12T05:19:03;45.30;;;10.97;;
71790;SDS011;59638;52.126;5.434;2023-09-12T05:21:31;45.75;;;13.00;;
71790;SDS011;59638;52.126;5.434;2023-09-12T05:23:57;76.80;;;13.38;;
71790;SDS011;59638;52.126;5.434;2023-09-12T05:26:24;60.38;;;13.38;;
71790;SDS011;59638;52.126;5.434;2023-09-12T05:28:50;111.18;;;14.45;;
71790;SDS011;59638;52.126;5.434;2023-09-12T05:31:17;84.80;;;13.83;;
71790;SDS011;59638;52.126;5.434;2023-09-12T05:33:44;113.18;;;14.75;;
71790;SDS011;59638;52.126;5.434;2023-09-12T05:36:10;84.60;;;15.32;;
71790;SDS011;59638;52.126;5.434;2023-09-12T05:38:37;102.75;;;15.18;;
71790;SDS011;59638;52.126;5.434;2023-09-12T05:41:03;92.82;;;15.02;;
71790;SDS011;59638;52.126;5.434;2023-09-12T05:43:29;92.07;;;13.97;;
71790;SDS011;59638;52.126;5.434;2023-09-12T05:45:56;97.85;;;14.93;;
71790;SDS011;59638;52.126;5.434;2023-09-12T05:48:24;44.03;;;14.18;;
71790;SDS011;59638;52.126;5.434;2023-09-12T05:50:50;40.13;;;14.90;;
71790;SDS011;59638;52.126;5.434;2023-09-12T05:53:17;78.25;;;14.88;;
71790;SDS011;59638;52.126;5.434;2023-09-12T05:55:43;35.23;;;13.80;;
71790;SDS011;59638;52.126;5.434;2023-09-12T05:58:11;54.38;;;13.90;;
71790;SDS011;59638;52.126;5.434;2023-09-12T06:00:37;51.70;;;14.23;;
71790;SDS011;59638;52.126;5.434;2023-09-12T06:03:04;54.40;;;16.17;;
71790;SDS011;59638;52.126;5.434;2023-09-12T06:05:30;147.52;;;19.33;;
71790;SDS011;59638;52.126;5.434;2023-09-12T06:07:58;91.40;;;15.50;;
71790;SDS011;59638;52.126;5.434;2023-09-12T06:10:24;35.50;;;14.52;;
71790;SDS011;59638;52.126;5.434;2023-09-12T06:12:51;70.13;;;16.38;;
71790;SDS011;59638;52.126;5.434;2023-09-12T06:15:17;39.72;;;16.25;;
71790;SDS011;59638;52.126;5.434;2023-09-12T06:17:44;40.55;;;16.52;;
71790;SDS011;59638;52.126;5.434;2023-09-12T06:20:10;57.80;;;17.37;;
71790;SDS011;59638;52.126;5.434;2023-09-12T06:22:37;50.20;;;17.45;;
71790;SDS011;59638;52.126;5.434;2023-09-12T06:25:04;56.45;;;19.90;;
71790;SDS011;59638;52.126;5.434;2023-09-12T06:27:30;58.45;;;18.45;;
71790;SDS011;59638;52.126;5.434;2023-09-12T06:29:58;35.30;;;18.85;;
71790;SDS011;59638;52.126;5.434;2023-09-12T06:32:24;34.13;;;18.27;;
71790;SDS011;59638;52.126;5.434;2023-09-12T06:34:51;28.50;;;17.73;;
71790;SDS011;59638;52.126;5.434;2023-09-12T06:37:17;26.73;;;15.65;;
71790;SDS011;59638;52.126;5.434;2023-09-12T06:39:44;25.50;;;17.02;;
71790;SDS011;59638;52.126;5.434;2023-09-12T06:42:11;33.42;;;19.00;;
71790;SDS011;59638;52.126;5.434;2023-09-12T06:44:38;32.97;;;18.63;;
71790;SDS011;59638;52.126;5.434;2023-09-12T06:47:04;30.67;;;18.67;;
71790;SDS011;59638;52.126;5.434;2023-09-12T06:49:31;29.67;;;18.42;;
71790;SDS011;59638;52.126;5.434;2023-09-12T06:52:01;32.17;;;18.98;;
71790;SDS011;59638;52.126;5.434;2023-09-12T06:54:27;31.67;;;19.20;;
71790;SDS011;59638;52.126;5.434;2023-09-12T06:56:54;34.40;;;18.87;;
71790;SDS011;59638;52.126;5.434;2023-09-12T06:59:20;33.13;;;17.95;;
71790;SDS011;59638;52.126;5.434;2023-09-12T07:01:47;35.40;;;19.73;;
71790;SDS011;59638;52.126;5.434;2023-09-12T07:04:14;33.42;;;19.42;;
71790;SDS011;59638;52.126;5.434;2023-09-12T07:06:40;38.42;;;20.52;;
71790;SDS011;59638;52.126;5.434;2023-09-12T07:09:08;35.93;;;19.93;;
71790;SDS011;59638;52.126;5.434;2023-09-12T07:11:37;34.35;;;19.27;;
71790;SDS011;59638;52.126;5.434;2023-09-12T07:14:04;34.47;;;20.50;;
71790;SDS011;59638;52.126;5.434;2023-09-12T07:16:31;32.35;;;19.98;;
71790;SDS011;59638;52.126;5.434;2023-09-12T07:18:58;38.10;;;22.33;;
71790;SDS011;59638;52.126;5.434;2023-09-12T07:21:24;42.17;;;21.13;;
71790;SDS011;59638;52.126;5.434;2023-09-12T07:23:51;36.88;;;21.30;;
71790;SDS011;59638;52.126;5.434;2023-09-12T07:26:17;39.05;;;22.15;;
71790;SDS011;59638;52.126;5.434;2023-09-12T07:28:45;41.50;;;22.10;;
71790;SDS011;59638;52.126;5.434;2023-09-12T07:31:12;42.63;;;22.45;;
71790;SDS011;59638;52.126;5.434;2023-09-12T07:33:38;36.60;;;21.83;;
71790;SDS011;59638;52.126;5.434;2023-09-12T07:36:05;43.03;;;22.08;;
71790;SDS011;59638;52.126;5.434;2023-09-12T07:38:32;37.05;;;21.45;;
71790;SDS011;59638;52.126;5.434;2023-09-12T07:41:01;37.10;;;21.27;;
71790;SDS011;59638;52.126;5.434;2023-09-12T07:43:29;38.15;;;22.77;;
71790;SDS011;59638;52.126;5.434;2023-09-12T07:45:56;39.77;;;21.63;;
71790;SDS011;59638;52.126;5.434;2023-09-12T07:48:24;40.70;;;21.98;;
71790;SDS011;59638;52.126;5.434;2023-09-12T07:50:51;42.90;;;22.35;;
71790;SDS011;59638;52.126;5.434;2023-09-12T07:53:18;43.08;;;21.85;;
71790;SDS011;59638;52.126;5.434;2023-09-12T07:55:44;40.33;;;21.20;;
71790;SDS011;59638;52.126;5.434;2023-09-12T07:58:13;41.50;;;23.17;;
71790;SDS011;59638;52.126;5.434;2023-09-12T08:00:40;37.92;;;21.35;;
71790;SDS011;59638;52.126;5.434;2023-09-12T08:03:07;32.97;;;20.00;;
71790;SDS011;59638;52.126;5.434;2023-09-12T08:05:34;36.17;;;19.52;;
71790;SDS011;59638;52.126;5.434;2023-09-12T08:08:01;36.42;;;20.15;;
71790;SDS011;59638;52.126;5.434;2023-09-12T08:10:27;28.23;;;17.83;;
71790;SDS011;59638;52.126;5.434;2023-09-12T08:12:54;29.27;;;18.58;;
71790;SDS011;59638;52.126;5.434;2023-09-12T08:15:21;28.15;;;17.92;;
71790;SDS011;59638;52.126;5.434;2023-09-12T08:17:47;27.48;;;17.60;;
71790;SDS011;59638;52.126;5.434;2023-09-12T08:20:18;28.48;;;18.67;;
71790;SDS011;59638;52.126;5.434;2023-09-12T08:22:45;24.83;;;17.50;;
71790;SDS011;59638;52.126;5.434;2023-09-12T08:25:12;33.15;;;16.83;;
71790;SDS011;59638;52.126;5.434;2023-09-12T08:27:40;22.05;;;16.55;;
71790;SDS011;59638;52.126;5.434;2023-09-12T08:30:08;27.88;;;17.08;;
71790;SDS011;59638;52.126;5.434;2023-09-12T08:32:36;24.20;;;17.42;;
71790;SDS011;59638;52.126;5.434;2023-09-12T08:35:08;24.57;;;18.00;;
71790;SDS011;59638;52.126;5.434;2023-09-12T08:37:35;22.40;;;16.83;;
71790;SDS011;59638;52.126;5.434;2023-09-12T08:40:01;23.60;;;16.58;;
71790;SDS011;59638;52.126;5.434;2023-09-12T08:42:28;26.75;;;17.83;;
71790;SDS011;59638;52.126;5.434;2023-09-12T08:44:56;22.67;;;17.13;;
71790;SDS011;59638;52.126;5.434;2023-09-12T08:47:23;17.63;;;15.73;;
71790;SDS011;59638;52.126;5.434;2023-09-12T08:49:51;24.55;;;16.45;;
71790;SDS011;59638;52.126;5.434;2023-09-12T08:52:18;28.70;;;17.15;;
71790;SDS011;59638;52.126;5.434;2023-09-12T08:54:44;20.70;;;15.77;;
71790;SDS011;59638;52.126;5.434;2023-09-12T08:57:11;19.95;;;13.70;;
71790;SDS011;59638;52.126;5.434;2023-09-12T08:59:39;22.87;;;15.87;;
71790;SDS011;59638;52.126;5.434;2023-09-12T09:02:08;18.10;;;14.93;;
71790;SDS011;59638;52.126;5.434;2023-09-12T09:04:36;22.27;;;14.88;;
71790;SDS011;59638;52.126;5.434;2023-09-12T09:07:05;21.13;;;15.68;;
71790;SDS011;59638;52.126;5.434;2023-09-12T09:09:33;21.92;;;15.77;;
71790;SDS011;59638;52.126;5.434;2023-09-12T09:11:59;22.70;;;15.60;;
71790;SDS011;59638;52.126;5.434;2023-09-12T09:14:27;21.50;;;15.45;;
71790;SDS011;59638;52.126;5.434;2023-09-12T09:16:56;23.30;;;15.98;;
71790;SDS011;59638;52.126;5.434;2023-09-12T09:19:22;23.50;;;15.45;;
71790;SDS011;59638;52.126;5.434;2023-09-12T09:22:06;24.25;;;15.30;;
71790;SDS011;59638;52.126;5.434;2023-09-12T09:24:33;21.80;;;14.80;;
71790;SDS011;59638;52.126;5.434;2023-09-12T09:26:59;17.25;;;14.55;;
71790;SDS011;59638;52.126;5.434;2023-09-12T09:29:27;20.80;;;14.15;;
71790;SDS011;59638;52.126;5.434;2023-09-12T09:32:00;21.02;;;14.85;;
71790;SDS011;59638;52.126;5.434;2023-09-12T09:34:27;20.00;;;15.32;;
71790;SDS011;59638;52.126;5.434;2023-09-12T09:36:56;21.63;;;14.77;;
71790;SDS011;59638;52.126;5.434;2023-09-12T09:39:24;21.00;;;15.13;;
71790;SDS011;59638;52.126;5.434;2023-09-12T09:41:52;22.17;;;17.80;;
71790;SDS011;59638;52.126;5.434;2023-09-12T09:44:20;20.20;;;15.52;;
71790;SDS011;59638;52.126;5.434;2023-09-12T09:46:55;25.73;;;17.25;;
71790;SDS011;59638;52.126;5.434;2023-09-12T09:49:27;28.13;;;18.07;;
71790;SDS011;59638;52.126;5.434;2023-09-12T09:51:54;30.02;;;17.60;;
71790;SDS011;59638;52.126;5.434;2023-09-12T09:54:23;23.92;;;16.48;;
71790;SDS011;59638;52.126;5.434;2023-09-12T09:56:57;27.55;;;18.33;;
71790;SDS011;59638;52.126;5.434;2023-09-12T09:59:24;25.02;;;17.15;;
71790;SDS011;59638;52.126;5.434;2023-09-12T10:01:58;25.23;;;16.97;;
71790;SDS011;59638;52.126;5.434;2023-09-12T10:04:26;25.92;;;18.35;;
71790;SDS011;59638;52.126;5.434;2023-09-12T10:06:57;24.75;;;17.88;;
71790;SDS011;59638;52.126;5.434;2023-09-12T10:09:25;31.15;;;18.58;;
71790;SDS011;59638;52.126;5.434;2023-09-12T10:11:54;22.23;;;17.55;;
71790;SDS011;59638;52.126;5.434;2023-09-12T10:14:22;29.67;;;18.77;;
71790;SDS011;59638;52.126;5.434;2023-09-12T10:16:50;26.42;;;16.70;;
71790;SDS011;59638;52.126;5.434;2023-09-12T10:19:19;24.40;;;16.45;;
71790;SDS011;59638;52.126;5.434;2023-09-12T10:21:50;26.50;;;16.85;;
71790;SDS011;59638;52.126;5.434;2023-09-12T10:24:46;32.53;;;18.15;;
71790;SDS011;59638;52.126;5.434;2023-09-12T10:27:15;29.90;;;17.37;;
71790;SDS011;59638;52.126;5.434;2023-09-12T10:29:42;25.95;;;17.65;;
71790;SDS011;59638;52.126;5.434;2023-09-12T10:32:14;24.02;;;18.08;;
71790;SDS011;59638;52.126;5.434;2023-09-12T10:34:41;22.77;;;18.02;;
71790;SDS011;59638;52.126;5.434;2023-09-12T10:37:11;26.80;;;17.63;;
71790;SDS011;59638;52.126;5.434;2023-09-12T10:39:42;25.00;;;17.37;;
71790;SDS011;59638;52.126;5.434;2023-09-12T10:42:09;23.20;;;17.25;;
71790;SDS011;59638;52.126;5.434;2023-09-12T10:44:38;25.33;;;16.77;;
71790;SDS011;59638;52.126;5.434;2023-09-12T10:47:05;30.38;;;16.42;;
71790;SDS011;59638;52.126;5.434;2023-09-12T10:49:32;21.23;;;14.38;;
71790;SDS011;59638;52.126;5.434;2023-09-12T10:51:58;20.80;;;15.67;;
71790;SDS011;59638;52.126;5.434;2023-09-12T10:54:35;27.42;;;17.27;;
71790;SDS011;59638;52.126;5.434;2023-09-12T10:57:09;27.55;;;17.33;;
71790;SDS011;59638;52.126;5.434;2023-09-12T11:02:34;22.77;;;15.90;;
71790;SDS011;59638;52.126;5.434;2023-09-12T11:05:05;17.30;;;13.93;;
71790;SDS011;59638;52.126;5.434;2023-09-12T11:12:45;17.10;;;14.35;;
71790;SDS011;59638;52.126;5.434;2023-09-12T11:15:17;15.82;;;12.77;;
71790;SDS011;59638;52.126;5.434;2023-09-12T11:17:48;19.30;;;14.53;;
71790;SDS011;59638;52.126;5.434;2023-09-12T11:20:25;16.05;;;14.35;;
71790;SDS011;59638;52.126;5.434;2023-09-12T11:22:52;20.15;;;13.52;;
71790;SDS011;59638;52.126;5.434;2023-09-12T11:25:20;19.58;;;14.60;;
71790;SDS011;59638;52.126;5.434;2023-09-12T11:30:19;19.50;;;12.30;;
71790;SDS011;59638;52.126;5.434;2023-09-12T11:32:48;13.85;;;11.10;;
71790;SDS011;59638;52.126;5.434;2023-09-12T11:35:17;15.27;;;11.95;;
71790;SDS011;59638;52.126;5.434;2023-09-12T11:37:53;18.55;;;13.00;;
71790;SDS011;59638;52.126;5.434;2023-09-12T11:40:25;18.73;;;13.27;;
71790;SDS011;59638;52.126;5.434;2023-09-12T11:43:08;14.43;;;11.77;;
71790;SDS011;59638;52.126;5.434;2023-09-12T11:45:44;15.75;;;12.07;;
71790;SDS011;59638;52.126;5.434;2023-09-12T11:48:11;16.42;;;12.55;;
71790;SDS011;59638;52.126;5.434;2023-09-12T11:50:38;25.40;;;14.75;;
71790;SDS011;59638;52.126;5.434;2023-09-12T11:53:07;16.08;;;12.18;;
71790;SDS011;59638;52.126;5.434;2023-09-12T11:55:48;18.20;;;12.17;;
71790;SDS011;59638;52.126;5.434;2023-09-12T11:58:18;13.65;;;11.85;;
71790;SDS011;59638;52.126;5.434;2023-09-12T12:00:46;17.90;;;12.10;;
71790;SDS011;59638;52.126;5.434;2023-09-12T12:03:14;17.33;;;11.88;;
71790;SDS011;59638;52.126;5.434;2023-09-12T12:05:41;13.23;;;11.77;;
71790;SDS011;59638;52.126;5.434;2023-09-12T12:08:09;17.27;;;12.50;;
71790;SDS011;59638;52.126;5.434;2023-09-12T12:10:57;15.93;;;12.10;;
71790;SDS011;59638;52.126;5.434;2023-09-12T12:13:26;14.68;;;12.25;;
71790;SDS011;59638;52.126;5.434;2023-09-12T12:15:55;16.60;;;10.50;;
71790;SDS011;59638;52.126;5.434;2023-09-12T12:18:22;14.98;;;10.93;;
71790;SDS011;59638;52.126;5.434;2023-09-12T12:20:49;12.20;;;10.37;;
71790;SDS011;59638;52.126;5.434;2023-09-12T12:23:16;15.25;;;11.15;;
71790;SDS011;59638;52.126;5.434;2023-09-12T12:25:42;11.52;;;10.32;;
71790;SDS011;59638;52.126;5.434;2023-09-12T12:28:08;12.18;;;10.13;;
71790;SDS011;59638;52.126;5.434;2023-09-12T12:30:35;16.02;;;10.10;;
71790;SDS011;59638;52.126;5.434;2023-09-12T12:33:07;17.43;;;11.20;;
71790;SDS011;59638;52.126;5.434;2023-09-12T12:36:05;13.90;;;10.23;;
71790;SDS011;59638;52.126;5.434;2023-09-12T12:38:34;9.60;;;8.68;;
71790;SDS011;59638;52.126;5.434;2023-09-12T12:41:07;10.02;;;9.00;;
71790;SDS011;59638;52.126;5.434;2023-09-12T12:43:34;12.50;;;10.60;;
71790;SDS011;59638;52.126;5.434;2023-09-12T12:46:01;11.00;;;8.97;;
71790;SDS011;59638;52.126;5.434;2023-09-12T12:48:31;11.45;;;8.45;;
71790;SDS011;59638;52.126;5.434;2023-09-12T12:50:59;8.80;;;7.75;;
71790;SDS011;59638;52.126;5.434;2023-09-12T12:53:41;6.43;;;5.60;;
71790;SDS011;59638;52.126;5.434;2023-09-12T12:56:12;4.95;;;4.55;;
71790;SDS011;59638;52.126;5.434;2023-09-12T12:58:45;4.77;;;4.30;;
71790;SDS011;59638;52.126;5.434;2023-09-12T13:01:13;6.68;;;5.53;;
71790;SDS011;59638;52.126;5.434;2023-09-12T13:03:40;4.50;;;3.30;;
71790;SDS011;59638;52.126;5.434;2023-09-12T13:06:08;5.47;;;3.65;;
71790;SDS011;59638;52.126;5.434;2023-09-12T13:08:46;2.70;;;2.22;;
71790;SDS011;59638;52.126;5.434;2023-09-12T13:11:13;3.03;;;2.67;;
71790;SDS011;59638;52.126;5.434;2023-09-12T13:13:43;6.85;;;2.67;;
71790;SDS011;59638;52.126;5.434;2023-09-12T13:16:12;2.97;;;2.35;;
71790;SDS011;59638;52.126;5.434;2023-09-12T13:18:39;3.30;;;2.05;;
71790;SDS011;59638;52.126;5.434;2023-09-12T13:21:06;4.30;;;1.90;;
71790;SDS011;59638;52.126;5.434;2023-09-12T13:23:33;3.10;;;2.80;;
71790;SDS011;59638;52.126;5.434;2023-09-12T13:26:01;3.35;;;2.97;;
71790;SDS011;59638;52.126;5.434;2023-09-12T13:28:29;3.95;;;3.22;;
71790;SDS011;59638;52.126;5.434;2023-09-12T13:30:56;5.50;;;4.32;;
71790;SDS011;59638;52.126;5.434;2023-09-12T13:33:24;4.25;;;3.72;;
71790;SDS011;59638;52.126;5.434;2023-09-12T13:35:50;4.20;;;3.67;;
71790;SDS011;59638;52.126;5.434;2023-09-12T13:38:17;21.27;;;14.85;;
71790;SDS011;59638;52.126;5.434;2023-09-12T13:40:45;8.07;;;5.40;;
71790;SDS011;59638;52.126;5.434;2023-09-12T13:43:13;5.03;;;4.45;;
71790;SDS011;59638;52.126;5.434;2023-09-12T13:45:40;16.75;;;12.50;;
71790;SDS011;59638;52.126;5.434;2023-09-12T13:48:07;4.90;;;3.57;;
71790;SDS011;59638;52.126;5.434;2023-09-12T13:50:34;5.85;;;2.13;;
71790;SDS011;59638;52.126;5.434;2023-09-12T13:53:01;191.38;;;125.85;;
71790;SDS011;59638;52.126;5.434;2023-09-12T13:55:34;6.90;;;4.15;;
71790;SDS011;59638;52.126;5.434;2023-09-12T13:58:21;3.05;;;2.38;;
71790;SDS011;59638;52.126;5.434;2023-09-12T14:00:49;2.17;;;1.60;;
71790;SDS011;59638;52.126;5.434;2023-09-12T14:03:15;2.17;;;1.77;;
71790;SDS011;59638;52.126;5.434;2023-09-12T14:05:42;3.50;;;2.22;;
71790;SDS011;59638;52.126;5.434;2023-09-12T14:08:10;4.93;;;2.70;;
71790;SDS011;59638;52.126;5.434;2023-09-12T14:10:37;4.18;;;3.15;;
71790;SDS011;59638;52.126;5.434;2023-09-12T14:13:05;5.93;;;4.00;;
71790;SDS011;59638;52.126;5.434;2023-09-12T14:15:47;3.78;;;3.30;;
71790;SDS011;59638;52.126;5.434;2023-09-12T14:18:16;7.28;;;4.55;;
71790;SDS011;59638;52.126;5.434;2023-09-12T14:20:44;6.10;;;5.10;;
71790;SDS011;59638;52.126;5.434;2023-09-12T14:23:13;8.13;;;4.82;;
71790;SDS011;59638;52.126;5.434;2023-09-12T14:25:40;7.83;;;5.57;;
71790;SDS011;59638;52.126;5.434;2023-09-12T14:28:08;6.93;;;5.28;;
71790;SDS011;59638;52.126;5.434;2023-09-12T14:30:36;10.60;;;5.57;;
71790;SDS011;59638;52.126;5.434;2023-09-12T14:33:04;7.65;;;5.32;;
71790;SDS011;59638;52.126;5.434;2023-09-12T14:35:30;6.93;;;5.78;;
71790;SDS011;59638;52.126;5.434;2023-09-12T14:37:57;6.33;;;5.17;;
71790;SDS011;59638;52.126;5.434;2023-09-12T14:40:24;9.23;;;6.03;;
71790;SDS011;59638;52.126;5.434;2023-09-12T14:42:53;8.15;;;5.85;;